sensor_id;sensor_type;location;lat;lon;timestamp;P1;durP1;ratioP1;P2;durP2;ratioP2
45836;SDS011;31548;51.420;-0.040;2024-01-16T00:02:18;11.25;;;3.40;;
45836;SDS011;31548;51.420;-0.040;2024-01-16T00:04:46;5.00;;;2.33;;
45836;SDS011;31548;51.420;-0.040;2024-01-16T00:07:14;12.70;;;2.47;;
45836;SDS011;31548;51.420;-0.040;2024-01-16T00:09:42;9.70;;;3.38;;
45836;SDS011;31548;51.420;-0.040;2024-01-16T00:12:10;10.15;;;3.05;;
45836;SDS011;31548;51.420;-0.040;2024-01-16T00:14:39;6.10;;;2.42;;
45836;SDS011;31548;51.420;-0.040;2024-01-16T00:17:07;7.97;;;3.08;;
45836;SDS011;31548;51.420;-0.040;2024-01-16T00:19:35;10.27;;;3.83;;
45836;SDS011;31548;51.420;-0.040;2024-01-16T00:22:03;5.93;;;2.28;;
45836;SDS011;31548;51.420;-0.040;2024-01-16T00:24:32;7.82;;;3.03;;
45836;SDS011;31548;51.420;-0.040;2024-01-16T00:27:00;10.13;;;3.03;;
45836;SDS011;31548;51.420;-0.040;2024-01-16T00:29:28;7.70;;;2.65;;
45836;SDS011;31548;51.420;-0.040;2024-01-16T00:31:57;9.40;;;2.00;;
45836;SDS011;31548;51.420;-0.040;2024-01-16T00:34:25;7.30;;;1.95;;
45836;SDS011;31548;51.420;-0.040;2024-01-16T00:36:54;6.70;;;2.22;;
45836;SDS011;31548;51.420;-0.040;2024-01-16T00:39:22;7.00;;;2.90;;
45836;SDS011;31548;51.420;-0.040;2024-01-16T00:41:50;7.95;;;2.47;;
45836;SDS011;31548;51.420;-0.040;2024-01-16T00:44:18;6.97;;;2.20;;
45836;SDS011;31548;51.420;-0.040;2024-01-16T00:46:46;8.95;;;2.33;;
45836;SDS011;31548;51.420;-0.040;2024-01-16T00:49:14;9.48;;;2.75;;
45836;SDS011;31548;51.420;-0.040;2024-01-16T00:51:46;7.65;;;2.42;;
45836;SDS011;31548;51.420;-0.040;2024-01-16T00:54:14;6.82;;;2.97;;
45836;SDS011;31548;51.420;-0.040;2024-01-16T00:56:42;8.20;;;2.85;;
45836;SDS011;31548;51.420;-0.040;2024-01-16T00:59:10;7.82;;;2.95;;
45836;SDS011;31548;51.420;-0.040;2024-01-16T01:01:39;10.90;;;2.75;;
45836;SDS011;31548;51.420;-0.040;2024-01-16T01:04:07;11.52;;;2.35;;
45836;SDS011;31548;51.420;-0.040;2024-01-16T01:06:35;6.60;;;2.38;;
45836;SDS011;31548;51.420;-0.040;2024-01-16T01:09:03;8.05;;;2.10;;
45836;SDS011;31548;51.420;-0.040;2024-01-16T01:11:31;7.32;;;2.70;;
45836;SDS011;31548;51.420;-0.040;2024-01-16T01:13:59;13.07;;;2.97;;
45836;SDS011;31548;51.420;-0.040;2024-01-16T01:16:27;8.73;;;2.42;;
45836;SDS011;31548;51.420;-0.040;2024-01-16T01:18:55;6.53;;;2.03;;
45836;SDS011;31548;51.420;-0.040;2024-01-16T01:21:23;10.10;;;2.55;;
45836;SDS011;31548;51.420;-0.040;2024-01-16T01:23:51;5.68;;;2.30;;
45836;SDS011;31548;51.420;-0.040;2024-01-16T01:26:20;5.90;;;2.58;;
45836;SDS011;31548;51.420;-0.040;2024-01-16T01:28:48;7.13;;;2.63;;
45836;SDS011;31548;51.420;-0.040;2024-01-16T01:31:16;5.80;;;2.20;;
45836;SDS011;31548;51.420;-0.040;2024-01-16T01:33:44;8.73;;;2.35;;
45836;SDS011;31548;51.420;-0.040;2024-01-16T01:36:12;6.45;;;2.00;;
45836;SDS011;31548;51.420;-0.040;2024-01-16T01:38:40;7.30;;;2.38;;
45836;SDS011;31548;51.420;-0.040;2024-01-16T01:41:08;6.85;;;2.42;;
45836;SDS011;31548;51.420;-0.040;2024-01-16T01:43:39;10.43;;;2.75;;
45836;SDS011;31548;51.420;-0.040;2024-01-16T01:46:11;9.82;;;2.30;;
45836;SDS011;31548;51.420;-0.040;2024-01-16T01:48:46;8.38;;;2.83;;
45836;SDS011;31548;51.420;-0.040;2024-01-16T01:51:17;9.98;;;3.13;;
45836;SDS011;31548;51.420;-0.040;2024-01-16T01:53:46;10.77;;;4.60;;
45836;SDS011;31548;51.420;-0.040;2024-01-16T01:56:18;6.47;;;2.30;;
45836;SDS011;31548;51.420;-0.040;2024-01-16T01:58:47;7.45;;;2.15;;
45836;SDS011;31548;51.420;-0.040;2024-01-16T02:01:17;7.53;;;2.17;;
45836;SDS011;31548;51.420;-0.040;2024-01-16T02:03:46;7.32;;;3.05;;
45836;SDS011;31548;51.420;-0.040;2024-01-16T02:06:16;8.48;;;2.35;;
45836;SDS011;31548;51.420;-0.040;2024-01-16T02:08:44;5.20;;;2.08;;
45836;SDS011;31548;51.420;-0.040;2024-01-16T02:11:13;10.10;;;3.20;;
45836;SDS011;31548;51.420;-0.040;2024-01-16T02:13:41;6.88;;;2.55;;
45836;SDS011;31548;51.420;-0.040;2024-01-16T02:16:21;8.40;;;2.67;;
45836;SDS011;31548;51.420;-0.040;2024-01-16T02:18:50;11.05;;;2.22;;
45836;SDS011;31548;51.420;-0.040;2024-01-16T02:21:23;6.97;;;2.25;;
45836;SDS011;31548;51.420;-0.040;2024-01-16T02:23:55;10.18;;;1.92;;
45836;SDS011;31548;51.420;-0.040;2024-01-16T02:26:23;7.20;;;2.72;;
45836;SDS011;31548;51.420;-0.040;2024-01-16T02:28:51;6.07;;;1.98;;
45836;SDS011;31548;51.420;-0.040;2024-01-16T02:31:19;3.72;;;1.73;;
45836;SDS011;31548;51.420;-0.040;2024-01-16T02:33:47;3.58;;;1.40;;
45836;SDS011;31548;51.420;-0.040;2024-01-16T02:36:16;5.75;;;1.60;;
45836;SDS011;31548;51.420;-0.040;2024-01-16T02:38:43;10.35;;;2.10;;
45836;SDS011;31548;51.420;-0.040;2024-01-16T02:41:16;3.78;;;1.63;;
45836;SDS011;31548;51.420;-0.040;2024-01-16T02:43:45;4.43;;;1.75;;
45836;SDS011;31548;51.420;-0.040;2024-01-16T02:46:13;4.20;;;2.05;;
45836;SDS011;31548;51.420;-0.040;2024-01-16T02:48:41;4.88;;;1.67;;
45836;SDS011;31548;51.420;-0.040;2024-01-16T02:51:12;5.25;;;1.52;;
45836;SDS011;31548;51.420;-0.040;2024-01-16T02:53:40;12.50;;;1.50;;
45836;SDS011;31548;51.420;-0.040;2024-01-16T02:56:08;3.47;;;1.48;;
45836;SDS011;31548;51.420;-0.040;2024-01-16T02:58:37;7.80;;;1.77;;
45836;SDS011;31548;51.420;-0.040;2024-01-16T03:01:05;6.30;;;2.00;;
45836;SDS011;31548;51.420;-0.040;2024-01-16T03:03:33;5.75;;;1.60;;
45836;SDS011;31548;51.420;-0.040;2024-01-16T03:06:02;8.43;;;2.20;;
45836;SDS011;31548;51.420;-0.040;2024-01-16T03:08:30;3.33;;;1.60;;
45836;SDS011;31548;51.420;-0.040;2024-01-16T03:10:58;5.45;;;1.70;;
45836;SDS011;31548;51.420;-0.040;2024-01-16T03:13:26;7.75;;;1.83;;
45836;SDS011;31548;51.420;-0.040;2024-01-16T03:15:54;4.30;;;1.75;;
45836;SDS011;31548;51.420;-0.040;2024-01-16T03:18:23;4.18;;;1.83;;
45836;SDS011;31548;51.420;-0.040;2024-01-16T03:20:51;6.75;;;2.33;;
45836;SDS011;31548;51.420;-0.040;2024-01-16T03:23:19;5.90;;;2.05;;
45836;SDS011;31548;51.420;-0.040;2024-01-16T03:25:48;3.78;;;1.50;;
45836;SDS011;31548;51.420;-0.040;2024-01-16T03:28:15;6.90;;;1.92;;
45836;SDS011;31548;51.420;-0.040;2024-01-16T03:30:43;2.78;;;1.25;;
45836;SDS011;31548;51.420;-0.040;2024-01-16T03:33:11;5.20;;;1.70;;
45836;SDS011;31548;51.420;-0.040;2024-01-16T03:35:39;6.38;;;1.88;;
45836;SDS011;31548;51.420;-0.040;2024-01-16T03:38:08;4.55;;;1.38;;
45836;SDS011;31548;51.420;-0.040;2024-01-16T03:40:36;6.53;;;1.73;;
45836;SDS011;31548;51.420;-0.040;2024-01-16T03:43:04;7.22;;;1.52;;
45836;SDS011;31548;51.420;-0.040;2024-01-16T03:45:33;6.47;;;1.65;;
45836;SDS011;31548;51.420;-0.040;2024-01-16T03:48:02;6.40;;;1.40;;
45836;SDS011;31548;51.420;-0.040;2024-01-16T03:50:31;6.88;;;1.55;;
45836;SDS011;31548;51.420;-0.040;2024-01-16T03:53:00;5.80;;;1.20;;
45836;SDS011;31548;51.420;-0.040;2024-01-16T03:55:31;7.30;;;1.95;;
45836;SDS011;31548;51.420;-0.040;2024-01-16T03:57:59;3.58;;;1.48;;
45836;SDS011;31548;51.420;-0.040;2024-01-16T04:00:28;3.47;;;1.10;;
45836;SDS011;31548;51.420;-0.040;2024-01-16T04:02:56;2.00;;;0.93;;
45836;SDS011;31548;51.420;-0.040;2024-01-16T04:05:24;2.08;;;1.05;;
45836;SDS011;31548;51.420;-0.040;2024-01-16T04:07:52;4.35;;;0.90;;
45836;SDS011;31548;51.420;-0.040;2024-01-16T04:10:20;4.65;;;1.00;;
45836;SDS011;31548;51.420;-0.040;2024-01-16T04:12:48;4.03;;;1.00;;
45836;SDS011;31548;51.420;-0.040;2024-01-16T04:15:16;3.08;;;0.85;;
45836;SDS011;31548;51.420;-0.040;2024-01-16T04:17:49;4.57;;;1.48;;
45836;SDS011;31548;51.420;-0.040;2024-01-16T04:20:17;4.63;;;1.58;;
45836;SDS011;31548;51.420;-0.040;2024-01-16T04:22:45;6.05;;;1.63;;
45836;SDS011;31548;51.420;-0.040;2024-01-16T04:25:13;4.88;;;1.00;;
45836;SDS011;31548;51.420;-0.040;2024-01-16T04:27:41;8.25;;;1.58;;
45836;SDS011;31548;51.420;-0.040;2024-01-16T04:30:09;10.88;;;1.73;;
45836;SDS011;31548;51.420;-0.040;2024-01-16T04:32:37;9.02;;;2.20;;
45836;SDS011;31548;51.420;-0.040;2024-01-16T04:35:05;6.72;;;1.60;;
45836;SDS011;31548;51.420;-0.040;2024-01-16T04:37:34;6.63;;;1.63;;
45836;SDS011;31548;51.420;-0.040;2024-01-16T04:40:02;5.55;;;1.35;;
45836;SDS011;31548;51.420;-0.040;2024-01-16T04:42:32;5.78;;;1.83;;
45836;SDS011;31548;51.420;-0.040;2024-01-16T04:45:01;7.60;;;1.35;;
45836;SDS011;31548;51.420;-0.040;2024-01-16T04:47:29;4.50;;;1.10;;
45836;SDS011;31548;51.420;-0.040;2024-01-16T04:49:58;9.40;;;3.00;;
45836;SDS011;31548;51.420;-0.040;2024-01-16T04:52:26;4.55;;;1.08;;
45836;SDS011;31548;51.420;-0.040;2024-01-16T04:54:54;5.15;;;1.65;;
45836;SDS011;31548;51.420;-0.040;2024-01-16T04:57:22;8.95;;;1.92;;
45836;SDS011;31548;51.420;-0.040;2024-01-16T04:59:50;5.88;;;1.40;;
45836;SDS011;31548;51.420;-0.040;2024-01-16T05:02:18;5.00;;;1.45;;
45836;SDS011;31548;51.420;-0.040;2024-01-16T05:04:45;6.00;;;1.20;;
45836;SDS011;31548;51.420;-0.040;2024-01-16T05:07:16;8.93;;;1.77;;
45836;SDS011;31548;51.420;-0.040;2024-01-16T05:09:46;2.78;;;1.10;;
45836;SDS011;31548;51.420;-0.040;2024-01-16T05:12:14;3.58;;;1.08;;
45836;SDS011;31548;51.420;-0.040;2024-01-16T05:14:41;7.70;;;1.55;;
45836;SDS011;31548;51.420;-0.040;2024-01-16T05:17:09;6.38;;;1.00;;
45836;SDS011;31548;51.420;-0.040;2024-01-16T05:19:37;3.28;;;1.20;;
45836;SDS011;31548;51.420;-0.040;2024-01-16T05:22:05;4.55;;;1.30;;
45836;SDS011;31548;51.420;-0.040;2024-01-16T05:24:33;4.70;;;1.17;;
45836;SDS011;31548;51.420;-0.040;2024-01-16T05:27:01;3.58;;;1.45;;
45836;SDS011;31548;51.420;-0.040;2024-01-16T05:29:29;5.88;;;1.60;;
45836;SDS011;31548;51.420;-0.040;2024-01-16T05:31:57;2.85;;;1.05;;
45836;SDS011;31548;51.420;-0.040;2024-01-16T05:34:25;4.05;;;1.20;;
45836;SDS011;31548;51.420;-0.040;2024-01-16T05:36:53;5.57;;;1.20;;
45836;SDS011;31548;51.420;-0.040;2024-01-16T05:39:21;6.15;;;1.65;;
45836;SDS011;31548;51.420;-0.040;2024-01-16T05:41:49;5.35;;;1.13;;
45836;SDS011;31548;51.420;-0.040;2024-01-16T05:44:17;4.32;;;1.13;;
45836;SDS011;31548;51.420;-0.040;2024-01-16T05:46:45;7.18;;;1.42;;
45836;SDS011;31548;51.420;-0.040;2024-01-16T05:49:12;3.13;;;1.38;;
45836;SDS011;31548;51.420;-0.040;2024-01-16T05:51:40;5.30;;;1.00;;
45836;SDS011;31548;51.420;-0.040;2024-01-16T05:54:08;5.18;;;1.02;;
45836;SDS011;31548;51.420;-0.040;2024-01-16T05:56:36;5.93;;;1.20;;
45836;SDS011;31548;51.420;-0.040;2024-01-16T05:59:04;3.83;;;1.33;;
45836;SDS011;31548;51.420;-0.040;2024-01-16T06:01:32;6.43;;;1.73;;
45836;SDS011;31548;51.420;-0.040;2024-01-16T06:04:00;6.00;;;1.17;;
45836;SDS011;31548;51.420;-0.040;2024-01-16T06:06:28;5.75;;;1.40;;
45836;SDS011;31548;51.420;-0.040;2024-01-16T06:08:56;4.68;;;1.33;;
45836;SDS011;31548;51.420;-0.040;2024-01-16T06:11:32;5.88;;;1.38;;
45836;SDS011;31548;51.420;-0.040;2024-01-16T06:14:01;3.90;;;1.30;;
45836;SDS011;31548;51.420;-0.040;2024-01-16T06:16:29;9.07;;;2.10;;
45836;SDS011;31548;51.420;-0.040;2024-01-16T06:18:57;4.60;;;1.13;;
45836;SDS011;31548;51.420;-0.040;2024-01-16T06:21:25;8.90;;;1.70;;
45836;SDS011;31548;51.420;-0.040;2024-01-16T06:23:54;7.07;;;1.58;;
45836;SDS011;31548;51.420;-0.040;2024-01-16T06:26:22;4.25;;;1.73;;
45836;SDS011;31548;51.420;-0.040;2024-01-16T06:28:50;6.63;;;1.48;;
45836;SDS011;31548;51.420;-0.040;2024-01-16T06:31:18;5.30;;;1.58;;
45836;SDS011;31548;51.420;-0.040;2024-01-16T06:33:46;6.72;;;1.40;;
45836;SDS011;31548;51.420;-0.040;2024-01-16T06:36:14;4.68;;;1.55;;
45836;SDS011;31548;51.420;-0.040;2024-01-16T06:38:43;4.15;;;1.48;;
45836;SDS011;31548;51.420;-0.040;2024-01-16T06:41:10;4.82;;;1.38;;
45836;SDS011;31548;51.420;-0.040;2024-01-16T06:43:38;6.28;;;1.33;;
45836;SDS011;31548;51.420;-0.040;2024-01-16T06:46:06;2.33;;;1.10;;
45836;SDS011;31548;51.420;-0.040;2024-01-16T06:48:35;4.85;;;1.48;;
45836;SDS011;31548;51.420;-0.040;2024-01-16T06:51:06;4.07;;;1.10;;
45836;SDS011;31548;51.420;-0.040;2024-01-16T06:53:35;2.55;;;1.05;;
45836;SDS011;31548;51.420;-0.040;2024-01-16T06:56:05;6.18;;;1.20;;
45836;SDS011;31548;51.420;-0.040;2024-01-16T06:58:34;4.57;;;1.70;;
45836;SDS011;31548;51.420;-0.040;2024-01-16T07:01:03;2.88;;;1.15;;
45836;SDS011;31548;51.420;-0.040;2024-01-16T07:03:31;3.53;;;1.00;;
45836;SDS011;31548;51.420;-0.040;2024-01-16T07:05:59;4.28;;;1.63;;
45836;SDS011;31548;51.420;-0.040;2024-01-16T07:08:27;7.38;;;1.48;;
45836;SDS011;31548;51.420;-0.040;2024-01-16T07:10:55;5.60;;;1.25;;
45836;SDS011;31548;51.420;-0.040;2024-01-16T07:13:23;4.05;;;0.98;;
45836;SDS011;31548;51.420;-0.040;2024-01-16T07:15:51;2.63;;;1.20;;
45836;SDS011;31548;51.420;-0.040;2024-01-16T07:18:19;4.50;;;1.40;;
45836;SDS011;31548;51.420;-0.040;2024-01-16T07:20:47;3.33;;;1.30;;
45836;SDS011;31548;51.420;-0.040;2024-01-16T07:23:16;6.47;;;1.50;;
45836;SDS011;31548;51.420;-0.040;2024-01-16T07:25:43;4.35;;;1.13;;
45836;SDS011;31548;51.420;-0.040;2024-01-16T07:28:12;2.65;;;1.10;;
45836;SDS011;31548;51.420;-0.040;2024-01-16T07:30:42;8.70;;;1.30;;
45836;SDS011;31548;51.420;-0.040;2024-01-16T07:33:10;5.18;;;1.83;;
45836;SDS011;31548;51.420;-0.040;2024-01-16T07:35:38;4.88;;;1.15;;
45836;SDS011;31548;51.420;-0.040;2024-01-16T07:38:08;5.22;;;1.10;;
45836;SDS011;31548;51.420;-0.040;2024-01-16T07:40:36;3.10;;;1.30;;
45836;SDS011;31548;51.420;-0.040;2024-01-16T07:43:04;5.45;;;1.55;;
45836;SDS011;31548;51.420;-0.040;2024-01-16T07:45:32;6.43;;;1.92;;
45836;SDS011;31548;51.420;-0.040;2024-01-16T07:48:00;2.75;;;1.13;;
45836;SDS011;31548;51.420;-0.040;2024-01-16T07:50:31;3.03;;;1.10;;
45836;SDS011;31548;51.420;-0.040;2024-01-16T07:52:59;1.48;;;1.00;;
45836;SDS011;31548;51.420;-0.040;2024-01-16T07:55:27;4.57;;;1.15;;
45836;SDS011;31548;51.420;-0.040;2024-01-16T07:57:56;5.63;;;1.35;;
45836;SDS011;31548;51.420;-0.040;2024-01-16T08:00:24;3.22;;;1.00;;
45836;SDS011;31548;51.420;-0.040;2024-01-16T08:02:52;7.78;;;1.30;;
45836;SDS011;31548;51.420;-0.040;2024-01-16T08:05:20;4.80;;;1.15;;
45836;SDS011;31548;51.420;-0.040;2024-01-16T08:07:53;4.40;;;1.52;;
45836;SDS011;31548;51.420;-0.040;2024-01-16T08:10:21;4.78;;;1.52;;
45836;SDS011;31548;51.420;-0.040;2024-01-16T08:12:49;4.80;;;1.75;;
45836;SDS011;31548;51.420;-0.040;2024-01-16T08:15:17;6.38;;;1.30;;
45836;SDS011;31548;51.420;-0.040;2024-01-16T08:17:45;8.85;;;1.98;;
45836;SDS011;31548;51.420;-0.040;2024-01-16T08:20:13;4.05;;;1.50;;
45836;SDS011;31548;51.420;-0.040;2024-01-16T08:22:41;6.45;;;1.67;;
45836;SDS011;31548;51.420;-0.040;2024-01-16T08:25:10;7.07;;;1.67;;
45836;SDS011;31548;51.420;-0.040;2024-01-16T08:27:38;3.53;;;1.35;;
45836;SDS011;31548;51.420;-0.040;2024-01-16T08:30:06;5.32;;;1.67;;
45836;SDS011;31548;51.420;-0.040;2024-01-16T08:32:35;3.58;;;1.42;;
45836;SDS011;31548;51.420;-0.040;2024-01-16T08:35:04;4.45;;;1.58;;
45836;SDS011;31548;51.420;-0.040;2024-01-16T08:37:35;3.60;;;1.45;;
45836;SDS011;31548;51.420;-0.040;2024-01-16T08:40:03;4.63;;;1.27;;
45836;SDS011;31548;51.420;-0.040;2024-01-16T08:42:31;5.75;;;1.63;;
45836;SDS011;31548;51.420;-0.040;2024-01-16T08:44:59;2.65;;;1.35;;
45836;SDS011;31548;51.420;-0.040;2024-01-16T08:47:28;7.10;;;1.35;;
45836;SDS011;31548;51.420;-0.040;2024-01-16T08:49:56;3.65;;;1.50;;
45836;SDS011;31548;51.420;-0.040;2024-01-16T08:52:24;3.78;;;1.23;;
45836;SDS011;31548;51.420;-0.040;2024-01-16T08:54:52;5.28;;;1.23;;
45836;SDS011;31548;51.420;-0.040;2024-01-16T08:57:20;2.78;;;1.33;;
45836;SDS011;31548;51.420;-0.040;2024-01-16T08:59:52;3.70;;;1.55;;
45836;SDS011;31548;51.420;-0.040;2024-01-16T09:02:20;4.68;;;1.00;;
45836;SDS011;31548;51.420;-0.040;2024-01-16T09:04:48;7.57;;;1.10;;
45836;SDS011;31548;51.420;-0.040;2024-01-16T09:07:17;4.13;;;1.40;;
45836;SDS011;31548;51.420;-0.040;2024-01-16T09:09:46;3.00;;;1.10;;
45836;SDS011;31548;51.420;-0.040;2024-01-16T09:12:14;4.72;;;1.35;;
45836;SDS011;31548;51.420;-0.040;2024-01-16T09:14:42;2.83;;;1.38;;
45836;SDS011;31548;51.420;-0.040;2024-01-16T09:17:10;2.38;;;1.40;;
45836;SDS011;31548;51.420;-0.040;2024-01-16T09:19:38;8.75;;;1.20;;
45836;SDS011;31548;51.420;-0.040;2024-01-16T09:22:06;4.07;;;1.08;;
45836;SDS011;31548;51.420;-0.040;2024-01-16T09:24:34;3.58;;;1.25;;
45836;SDS011;31548;51.420;-0.040;2024-01-16T09:27:03;2.92;;;1.48;;
45836;SDS011;31548;51.420;-0.040;2024-01-16T09:29:33;3.33;;;1.30;;
45836;SDS011;31548;51.420;-0.040;2024-01-16T09:32:01;5.13;;;1.27;;
45836;SDS011;31548;51.420;-0.040;2024-01-16T09:34:30;2.95;;;1.10;;
45836;SDS011;31548;51.420;-0.040;2024-01-16T09:36:58;3.33;;;0.80;;
45836;SDS011;31548;51.420;-0.040;2024-01-16T09:39:28;3.20;;;1.00;;
45836;SDS011;31548;51.420;-0.040;2024-01-16T09:42:01;6.25;;;0.90;;
45836;SDS011;31548;51.420;-0.040;2024-01-16T09:44:29;4.65;;;1.10;;
45836;SDS011;31548;51.420;-0.040;2024-01-16T09:46:57;7.82;;;2.67;;
45836;SDS011;31548;51.420;-0.040;2024-01-16T09:49:26;3.58;;;1.05;;
45836;SDS011;31548;51.420;-0.040;2024-01-16T09:51:56;7.45;;;1.10;;
45836;SDS011;31548;51.420;-0.040;2024-01-16T09:54:28;2.65;;;0.80;;
45836;SDS011;31548;51.420;-0.040;2024-01-16T09:56:58;4.80;;;1.02;;
45836;SDS011;31548;51.420;-0.040;2024-01-16T09:59:26;6.50;;;1.15;;
45836;SDS011;31548;51.420;-0.040;2024-01-16T10:01:56;1.98;;;0.80;;
45836;SDS011;31548;51.420;-0.040;2024-01-16T10:04:25;4.53;;;1.10;;
45836;SDS011;31548;51.420;-0.040;2024-01-16T10:06:55;6.75;;;1.23;;
45836;SDS011;31548;51.420;-0.040;2024-01-16T10:09:24;5.32;;;1.23;;
45836;SDS011;31548;51.420;-0.040;2024-01-16T10:11:53;3.65;;;0.60;;
45836;SDS011;31548;51.420;-0.040;2024-01-16T10:14:22;2.97;;;1.10;;
45836;SDS011;31548;51.420;-0.040;2024-01-16T10:17:00;3.42;;;0.95;;
45836;SDS011;31548;51.420;-0.040;2024-01-16T10:19:48;8.27;;;1.10;;
45836;SDS011;31548;51.420;-0.040;2024-01-16T10:22:21;4.22;;;0.73;;
45836;SDS011;31548;51.420;-0.040;2024-01-16T10:25:09;3.78;;;0.90;;
45836;SDS011;31548;51.420;-0.040;2024-01-16T10:27:39;3.92;;;0.80;;
45836;SDS011;31548;51.420;-0.040;2024-01-16T10:30:07;4.35;;;1.00;;
45836;SDS011;31548;51.420;-0.040;2024-01-16T10:32:41;7.15;;;0.90;;
45836;SDS011;31548;51.420;-0.040;2024-01-16T10:35:10;8.15;;;1.05;;
45836;SDS011;31548;51.420;-0.040;2024-01-16T10:37:42;8.85;;;1.10;;
45836;SDS011;31548;51.420;-0.040;2024-01-16T10:40:21;14.63;;;1.55;;
45836;SDS011;31548;51.420;-0.040;2024-01-16T10:42:58;3.13;;;1.15;;
45836;SDS011;31548;51.420;-0.040;2024-01-16T10:45:33;2.78;;;1.00;;
45836;SDS011;31548;51.420;-0.040;2024-01-16T10:48:05;2.88;;;0.90;;
45836;SDS011;31548;51.420;-0.040;2024-01-16T10:50:35;6.72;;;1.35;;
45836;SDS011;31548;51.420;-0.040;2024-01-16T10:53:06;3.80;;;1.33;;
45836;SDS011;31548;51.420;-0.040;2024-01-16T10:55:38;3.28;;;0.90;;
45836;SDS011;31548;51.420;-0.040;2024-01-16T10:58:21;6.78;;;1.13;;
45836;SDS011;31548;51.420;-0.040;2024-01-16T11:00:54;3.90;;;1.30;;
45836;SDS011;31548;51.420;-0.040;2024-01-16T11:06:00;4.25;;;0.95;;
45836;SDS011;31548;51.420;-0.040;2024-01-16T11:08:29;9.18;;;2.08;;
45836;SDS011;31548;51.420;-0.040;2024-01-16T11:11:00;7.93;;;1.52;;
45836;SDS011;31548;51.420;-0.040;2024-01-16T11:13:31;3.90;;;1.13;;
45836;SDS011;31548;51.420;-0.040;2024-01-16T11:16:02;10.05;;;1.58;;
45836;SDS011;31548;51.420;-0.040;2024-01-16T11:18:34;13.25;;;2.10;;
45836;SDS011;31548;51.420;-0.040;2024-01-16T11:21:02;6.15;;;1.67;;
45836;SDS011;31548;51.420;-0.040;2024-01-16T11:23:37;6.80;;;1.15;;
45836;SDS011;31548;51.420;-0.040;2024-01-16T11:31:56;5.60;;;1.00;;
45836;SDS011;31548;51.420;-0.040;2024-01-16T11:37:12;9.02;;;1.35;;
45836;SDS011;31548;51.420;-0.040;2024-01-16T11:39:41;7.10;;;1.13;;
45836;SDS011;31548;51.420;-0.040;2024-01-16T11:42:08;5.45;;;0.70;;
45836;SDS011;31548;51.420;-0.040;2024-01-16T11:44:49;3.05;;;0.70;;
45836;SDS011;31548;51.420;-0.040;2024-01-16T11:47:23;8.13;;;1.17;;
45836;SDS011;31548;51.420;-0.040;2024-01-16T11:49:52;15.80;;;1.40;;
45836;SDS011;31548;51.420;-0.040;2024-01-16T11:52:39;5.75;;;1.55;;
45836;SDS011;31548;51.420;-0.040;2024-01-16T11:55:24;7.20;;;0.82;;
45836;SDS011;31548;51.420;-0.040;2024-01-16T12:00:50;1.77;;;0.60;;
45836;SDS011;31548;51.420;-0.040;2024-01-16T12:03:20;2.22;;;0.60;;
45836;SDS011;31548;51.420;-0.040;2024-01-16T12:06:01;1.15;;;0.60;;
45836;SDS011;31548;51.420;-0.040;2024-01-16T12:08:30;8.93;;;0.93;;
45836;SDS011;31548;51.420;-0.040;2024-01-16T12:10:58;3.75;;;0.60;;
45836;SDS011;31548;51.420;-0.040;2024-01-16T12:13:26;3.08;;;0.45;;
45836;SDS011;31548;51.420;-0.040;2024-01-16T12:16:00;1.60;;;0.50;;
45836;SDS011;31548;51.420;-0.040;2024-01-16T12:18:31;3.90;;;1.17;;
45836;SDS011;31548;51.420;-0.040;2024-01-16T12:21:10;4.57;;;1.85;;
45836;SDS011;31548;51.420;-0.040;2024-01-16T12:23:38;5.57;;;0.65;;
45836;SDS011;31548;51.420;-0.040;2024-01-16T12:26:21;5.90;;;0.60;;
45836;SDS011;31548;51.420;-0.040;2024-01-16T12:28:51;10.88;;;1.38;;
45836;SDS011;31548;51.420;-0.040;2024-01-16T12:31:26;7.93;;;0.70;;
45836;SDS011;31548;51.420;-0.040;2024-01-16T12:34:04;6.45;;;0.93;;
45836;SDS011;31548;51.420;-0.040;2024-01-16T12:36:36;4.32;;;0.75;;
45836;SDS011;31548;51.420;-0.040;2024-01-16T12:39:05;3.38;;;0.60;;
45836;SDS011;31548;51.420;-0.040;2024-01-16T12:41:39;2.90;;;0.70;;
45836;SDS011;31548;51.420;-0.040;2024-01-16T12:44:09;3.75;;;1.08;;
45836;SDS011;31548;51.420;-0.040;2024-01-16T12:49:31;9.45;;;0.90;;
45836;SDS011;31548;51.420;-0.040;2024-01-16T12:52:18;3.50;;;0.90;;
45836;SDS011;31548;51.420;-0.040;2024-01-16T12:54:59;5.78;;;1.02;;
45836;SDS011;31548;51.420;-0.040;2024-01-16T12:57:34;3.72;;;0.68;;
45836;SDS011;31548;51.420;-0.040;2024-01-16T13:00:03;4.13;;;1.23;;
45836;SDS011;31548;51.420;-0.040;2024-01-16T13:02:52;5.78;;;0.90;;
45836;SDS011;31548;51.420;-0.040;2024-01-16T13:05:20;10.32;;;1.67;;
45836;SDS011;31548;51.420;-0.040;2024-01-16T13:08:00;8.45;;;1.75;;
45836;SDS011;31548;51.420;-0.040;2024-01-16T13:10:29;6.18;;;1.50;;
45836;SDS011;31548;51.420;-0.040;2024-01-16T13:13:14;8.98;;;1.20;;
45836;SDS011;31548;51.420;-0.040;2024-01-16T13:15:48;6.82;;;1.20;;
45836;SDS011;31548;51.420;-0.040;2024-01-16T13:18:20;7.20;;;1.00;;
45836;SDS011;31548;51.420;-0.040;2024-01-16T13:20:49;7.50;;;1.13;;
45836;SDS011;31548;51.420;-0.040;2024-01-16T13:23:18;3.15;;;0.95;;
45836;SDS011;31548;51.420;-0.040;2024-01-16T13:25:47;9.65;;;1.77;;
45836;SDS011;31548;51.420;-0.040;2024-01-16T13:28:16;4.05;;;1.27;;
45836;SDS011;31548;51.420;-0.040;2024-01-16T13:30:49;6.40;;;1.00;;
45836;SDS011;31548;51.420;-0.040;2024-01-16T13:33:16;6.60;;;1.35;;
45836;SDS011;31548;51.420;-0.040;2024-01-16T13:35:45;8.02;;;2.00;;
45836;SDS011;31548;51.420;-0.040;2024-01-16T13:38:14;11.73;;;1.48;;
45836;SDS011;31548;51.420;-0.040;2024-01-16T13:40:46;3.28;;;1.15;;
45836;SDS011;31548;51.420;-0.040;2024-01-16T13:43:14;10.05;;;2.17;;
45836;SDS011;31548;51.420;-0.040;2024-01-16T13:45:41;11.85;;;1.30;;
45836;SDS011;31548;51.420;-0.040;2024-01-16T13:48:09;4.57;;;1.17;;
45836;SDS011;31548;51.420;-0.040;2024-01-16T13:50:37;4.43;;;1.35;;
45836;SDS011;31548;51.420;-0.040;2024-01-16T13:53:05;7.20;;;1.55;;
45836;SDS011;31548;51.420;-0.040;2024-01-16T13:55:34;5.45;;;1.10;;
45836;SDS011;31548;51.420;-0.040;2024-01-16T13:58:01;5.07;;;1.23;;
45836;SDS011;31548;51.420;-0.040;2024-01-16T14:00:29;5.95;;;1.05;;
45836;SDS011;31548;51.420;-0.040;2024-01-16T14:02:57;8.15;;;1.40;;
45836;SDS011;31548;51.420;-0.040;2024-01-16T14:05:25;5.55;;;1.10;;
45836;SDS011;31548;51.420;-0.040;2024-01-16T14:07:53;5.30;;;1.38;;
45836;SDS011;31548;51.420;-0.040;2024-01-16T14:10:21;12.23;;;1.48;;
45836;SDS011;31548;51.420;-0.040;2024-01-16T14:12:51;5.90;;;1.42;;
45836;SDS011;31548;51.420;-0.040;2024-01-16T14:15:20;5.65;;;1.25;;
45836;SDS011;31548;51.420;-0.040;2024-01-16T14:17:51;4.90;;;1.17;;
45836;SDS011;31548;51.420;-0.040;2024-01-16T14:20:22;4.43;;;1.35;;
45836;SDS011;31548;51.420;-0.040;2024-01-16T14:22:54;6.57;;;1.30;;
45836;SDS011;31548;51.420;-0.040;2024-01-16T14:25:23;6.30;;;1.17;;
45836;SDS011;31548;51.420;-0.040;2024-01-16T14:28:00;6.22;;;1.02;;
45836;SDS011;31548;51.420;-0.040;2024-01-16T14:30:36;6.10;;;1.20;;
45836;SDS011;31548;51.420;-0.040;2024-01-16T14:33:08;5.05;;;1.00;;
45836;SDS011;31548;51.420;-0.040;2024-01-16T14:35:36;4.60;;;1.00;;
45836;SDS011;31548;51.420;-0.040;2024-01-16T14:38:04;3.97;;;0.80;;
45836;SDS011;31548;51.420;-0.040;2024-01-16T14:40:32;7.78;;;1.80;;
45836;SDS011;31548;51.420;-0.040;2024-01-16T14:43:00;19.17;;;6.68;;
45836;SDS011;31548;51.420;-0.040;2024-01-16T14:45:31;25.08;;;8.38;;
45836;SDS011;31548;51.420;-0.040;2024-01-16T14:47:58;13.98;;;5.05;;
45836;SDS011;31548;51.420;-0.040;2024-01-16T14:50:27;20.85;;;5.60;;
45836;SDS011;31548;51.420;-0.040;2024-01-16T14:52:57;10.15;;;3.40;;
45836;SDS011;31548;51.420;-0.040;2024-01-16T14:55:25;9.15;;;2.03;;
45836;SDS011;31548;51.420;-0.040;2024-01-16T14:57:53;9.10;;;1.80;;
45836;SDS011;31548;51.420;-0.040;2024-01-16T15:00:27;5.13;;;1.05;;
45836;SDS011;31548;51.420;-0.040;2024-01-16T15:02:55;6.93;;;1.85;;
45836;SDS011;31548;51.420;-0.040;2024-01-16T15:05:24;4.80;;;0.90;;